WetterOnline ( https://www.wetteronline.de )

Wetter aktuell Waren

Aktuelles Wetter: Waren (71m)

6-stündlich | Neueste Meldungen
Ortszeit Temperatur Wetter
Fr, 27.11. 1:00 4.8° C Nebel
Do, 26.11. 19:00 6.1° C bedeckt
Do, 26.11. 13:00 7.0° C bedeckt
Do, 26.11. 7:00 2.6° C bedeckt
Do, 26.11. 1:00 2.5° C bedeckt
Mi, 25.11. 19:00 1.8° C Nebel
Mi, 25.11. 13:00 0.6° C bedeckt
Mi, 25.11. 7:00 1.6° C Nebel
Ortszeit Temperatur Wetter
Fr, 27.11. 6:30 3.0° C Nebel
Fr, 27.11. 6:20 3.0° C Nebel
Fr, 27.11. 6:10 3.1° C Nebel
Fr, 27.11. 6:00 3.3° C Nebel
Fr, 27.11. 5:50 3.3° C Nebel
Fr, 27.11. 5:40 3.3° C Nebel
Fr, 27.11. 5:30 3.3° C Nebel
Fr, 27.11. 5:00 3.3° C Nebel
Fr, 27.11. 3:00 4.1° C Nebel
Ortszeit Relative Feuchte Sichtweite
Fr, 27.11. 1:00 99% 0.3 km
Do, 26.11. 19:00 97% 6 km
Do, 26.11. 13:00 98% 2.1 km
Do, 26.11. 7:00 96% 4.2 km
Do, 26.11. 1:00 99% 1.3 km
Mi, 25.11. 19:00 99% 0.3 km
Mi, 25.11. 13:00 100% 1.8 km
Mi, 25.11. 7:00 99% 0.2 km
Ortszeit Relative Feuchte Sichtweite
Fr, 27.11. 6:30 100% 100 m
Fr, 27.11. 6:20 100% -
Fr, 27.11. 6:10 100% -
Fr, 27.11. 6:00 100% 100 m
Fr, 27.11. 5:50 100% -
Fr, 27.11. 5:40 100% -
Fr, 27.11. 5:30 100% 100 m
Fr, 27.11. 5:00 100% 100 m
Fr, 27.11. 3:00 99% 0.2 km
Ortszeit Niederschlagsmenge Niederschlagsart
Fr, 27.11. 1:00 0.0 l/m2 in 6 Std. -
Do, 26.11. 19:00 0.1 l/m2 in 12 Std. -
Do, 26.11. 13:00 0.1 l/m2 in 6 Std. Regen
Do, 26.11. 7:00 0.0 l/m2 in 12 Std. -
Do, 26.11. 1:00 0.0 l/m2 in 6 Std. -
Mi, 25.11. 19:00 0.0 l/m2 in 12 Std. -
Mi, 25.11. 13:00 0.0 l/m2 in 6 Std. -
Mi, 25.11. 7:00 0.0 l/m2 in 12 Std. -
Ortszeit Niederschlagsmenge Niederschlagsart
Fr, 27.11. 6:30 0.0 l/m2 in 1 Std. -
Fr, 27.11. 6:20 keine Meldung -
Fr, 27.11. 6:10 keine Meldung -
Fr, 27.11. 6:00 0.0 l/m2 in 1 Std. -
Fr, 27.11. 5:50 keine Meldung -
Fr, 27.11. 5:40 keine Meldung -
Fr, 27.11. 5:30 0.0 l/m2 in 1 Std. -
Fr, 27.11. 5:00 0.0 l/m2 in 1 Std. -
Fr, 27.11. 3:00 keine Meldung -
Ortszeit Stärke Spitze Richtung
km/h Bft. km/h Grad Sektor
Fr, 27.11. 1:00 6 1 15 270° W
Do, 26.11. 19:00 7 2 25 260° W
Do, 26.11. 13:00 11 2 22 230° SW
Do, 26.11. 7:00 13 3 24 210° SW
Do, 26.11. 1:00 13 3 31 210° SW
Mi, 25.11. 19:00 20 4 33 200° S
Mi, 25.11. 13:00 18 3 29 210° SW
Mi, 25.11. 7:00 17 3 24 190° S
Ortszeit Stärke Spitze Richtung
km/h Bft. km/h Grad Sektor
Fr, 27.11. 6:30 2 1 7 250° W
Fr, 27.11. 6:20 2 1 - 250° W
Fr, 27.11. 6:10 4 1 - 220° SW
Fr, 27.11. 6:00 4 1 11 230° SW
Fr, 27.11. 5:50 4 1 - 230° SW
Fr, 27.11. 5:40 4 1 - 250° W
Fr, 27.11. 5:30 4 1 11 270° W
Fr, 27.11. 5:00 4 1 11 250° W
Fr, 27.11. 3:00 7 2 14 270° W
Ortszeit Untergrenze Bedeckung Gattung
total tief tief mittel hoch
Fr, 27.11. 1:00 30 m 8/8 8/8 - - -
Do, 26.11. 19:00 4500 m 8/8 8/8 - - -
Do, 26.11. 13:00 60 m 8/8 8/8 - - -
Do, 26.11. 7:00 90 m 8/8 8/8 - - -
Do, 26.11. 1:00 30 m 8/8 8/8 - - -
Mi, 25.11. 19:00 30 m 8/8 8/8 - - -
Mi, 25.11. 13:00 30 m 8/8 8/8 - - -
Mi, 25.11. 7:00 30 m 8/8 8/8 - - -
Ortszeit Bedeckungsgrad in Achtel und Wolkenuntergrenze
Fr, 27.11. 6:30 8(<30m)
Fr, 27.11. 6:20 8(<30m)
Fr, 27.11. 6:10 8(<30m)
Fr, 27.11. 6:00 8(<30m)
Fr, 27.11. 5:50 8(<30m)
Fr, 27.11. 5:40 8(<30m)
Fr, 27.11. 5:30 8(<30m)
Fr, 27.11. 5:00 8(<30m)
Fr, 27.11. 3:00 8(<30m)
Ortszeit Luftdruck NN (hPa) Tendenz (hPa in 3 Std.)
Fr, 27.11. 1:00 1021 + 0,4
Do, 26.11. 19:00 1020 + 1,2
Do, 26.11. 13:00 1018 - 0,4
Do, 26.11. 7:00 1018 - 0,4
Do, 26.11. 1:00 1019 0,0
Mi, 25.11. 19:00 1019 + 0,3
Mi, 25.11. 13:00 1019 - 0,4
Mi, 25.11. 7:00 1019 - 0,6
Ortszeit Luftdruck NN (hPa) Tendenz (hPa in 3 Std.)
Fr, 27.11. 6:30 1021 + 0,2
Fr, 27.11. 6:20 1021 keine Meldung
Fr, 27.11. 6:10 1021 keine Meldung
Fr, 27.11. 6:00 1021 0,0
Fr, 27.11. 5:50 1021 keine Meldung
Fr, 27.11. 5:40 1021 keine Meldung
Fr, 27.11. 5:30 1021 + 0,3
Fr, 27.11. 5:00 1021 + 0,3
Fr, 27.11. 3:00 1021 + 0,3
Ortszeit Schneehöhe (cm)
Fr, 27.11. 1:00 0
Do, 26.11. 19:00 0
Do, 26.11. 13:00 0
Do, 26.11. 7:00 0
Do, 26.11. 1:00 0
Mi, 25.11. 19:00 0
Mi, 25.11. 13:00 0
Mi, 25.11. 7:00 0
Ortszeit Schneehöhe (cm)
Fr, 27.11. 6:30 0
Fr, 27.11. 6:20 0
Fr, 27.11. 6:10 0
Fr, 27.11. 6:00 0
Fr, 27.11. 5:50 0
Fr, 27.11. 5:40 0
Fr, 27.11. 5:30 0
Fr, 27.11. 5:00 0
Fr, 27.11. 3:00 -
Link zu dieser Seite / Seite empfehlen

Das Wetter in ...